Time;durP1;ratioP1;P1;durP2;ratioP2;P2;SDS_P1;SDS_P2;PMS_P1;PMS_P2;Temp;Humidity;BMP_temperature;BMP_pressure;BME280_temperature;BME280_humidity;BME280_pressure;Samples;Min_cycle;Max_cycle;Signal;HPM_P1;HPM_P2
2022/04/24 00:01:40;;;;;;;;;;;17.00;99.90;;;;;;5116951;28;19911;-46
2022/04/24 00:04:06;;;;;;;;;;;17.00;99.90;;;;;;5117264;28;20324;-46
2022/04/24 00:06:32;;;;;;;;;;;17.00;99.90;;;;;;5117033;28;19914;-48
2022/04/24 00:08:58;;;;;;;;;;;17.00;99.90;;;;;;5116941;28;20380;-47
2022/04/24 00:11:23;;;;;;;;;;;17.00;99.90;;;;;;5116858;28;19947;-47
2022/04/24 00:13:49;;;;;;;;;;;17.10;99.90;;;;;;5117202;28;19912;-45
2022/04/24 00:16:14;;;;;;;;;;;17.00;99.90;;;;;;5116732;28;19908;-47
2022/04/24 00:18:40;;;;;;;;;;;17.10;99.90;;;;;;5116661;28;20006;-45
2022/04/24 00:21:06;;;;;;;;;;;17.10;99.90;;;;;;5116573;28;19914;-47
2022/04/24 00:23:32;;;;;;;;;;;17.10;99.90;;;;;;5117221;28;19908;-48
2022/04/24 00:25:58;;;;;;;;;;;17.10;99.90;;;;;;5116938;28;19947;-49
2022/04/24 00:28:23;;;;;;;;;;;17.10;99.90;;;;;;5116582;28;19908;-47
2022/04/24 00:30:49;;;;;;;;;;;17.10;99.90;;;;;;5116949;28;19956;-46
2022/04/24 00:33:14;;;;;;;;;;;17.10;99.90;;;;;;5117132;28;19912;-49
2022/04/24 00:35:40;;;;;;;;;;;17.20;99.90;;;;;;5116698;28;20281;-45
2022/04/24 00:38:05;;;;;;;;;;;17.10;99.90;;;;;;5116635;28;19916;-46
2022/04/24 00:40:31;;;;;;;;;;;17.20;99.90;;;;;;5116322;28;19908;-48
2022/04/24 00:42:56;;;;;;;;;;;17.10;99.90;;;;;;5116466;28;19933;-45
2022/04/24 00:45:22;;;;;;;;;;;17.20;99.90;;;;;;5116531;28;19915;-50
2022/04/24 00:47:48;;;;;;;;;;;17.20;99.90;;;;;;5116132;28;20282;-44
2022/04/24 00:50:13;;;;;;;;;;;17.10;99.90;;;;;;5098094;28;19908;-48
2022/04/24 00:52:39;;;;;;;;;;;17.10;99.90;;;;;;5115959;28;19919;-43
2022/04/24 00:55:05;;;;;;;;;;;17.20;99.90;;;;;;5116013;28;19915;-46
2022/04/24 00:57:30;;;;;;;;;;;17.20;99.90;;;;;;5115762;28;20331;-46
2022/04/24 00:59:56;;;;;;;;;;;17.20;99.90;;;;;;5098037;28;19908;-45
2022/04/24 01:02:21;;;;;;;;;;;17.20;99.90;;;;;;5115929;28;20242;-47
2022/04/24 01:04:47;;;;;;;;;;;17.20;99.90;;;;;;5116516;28;19908;-46
2022/04/24 01:07:12;;;;;;;;;;;17.20;99.90;;;;;;5116292;28;19907;-45
2022/04/24 01:09:38;;;;;;;;;;;17.20;99.90;;;;;;5116387;28;19908;-46
2022/04/24 01:12:04;;;;;;;;;;;17.20;99.90;;;;;;5115641;28;19908;-47
2022/04/24 01:14:33;;;;;;;;;;;17.20;99.90;;;;;;5115928;28;19937;-47
2022/04/24 01:16:59;;;;;;;;;;;17.20;99.90;;;;;;5115665;28;20365;-49
2022/04/24 01:19:25;;;;;;;;;;;17.20;99.90;;;;;;5115605;28;19954;-46
2022/04/24 01:21:51;;;;;;;;;;;17.20;99.90;;;;;;5115846;28;19994;-49
2022/04/24 01:24:17;;;;;;;;;;;17.10;99.90;;;;;;5115755;28;19950;-45
2022/04/24 01:26:43;;;;;;;;;;;17.10;99.90;;;;;;5115683;28;19998;-49
2022/04/24 01:29:11;;;;;;;;;;;17.20;99.90;;;;;;5115678;28;20379;-48
2022/04/24 01:31:38;;;;;;;;;;;17.10;99.90;;;;;;5115388;28;19929;-47
2022/04/24 01:34:03;;;;;;;;;;;17.10;99.90;;;;;;5115233;28;20374;-45
2022/04/24 01:36:29;;;;;;;;;;;17.10;99.90;;;;;;5115504;28;19964;-51
2022/04/24 01:38:54;;;;;;;;;;;17.20;99.90;;;;;;5115176;28;19908;-50
2022/04/24 01:41:20;;;;;;;;;;;17.20;99.90;;;;;;5097198;28;19950;-44
2022/04/24 01:43:46;;;;;;;;;;;17.20;99.90;;;;;;5114988;28;19934;-48
2022/04/24 01:46:12;;;;;;;;;;;17.10;99.90;;;;;;5115275;28;19908;-46
2022/04/24 01:48:38;;;;;;;;;;;17.20;99.90;;;;;;5115004;28;19957;-49
2022/04/24 01:51:05;;;;;;;;;;;17.20;99.90;;;;;;5115249;28;19912;-47
2022/04/24 01:53:31;;;;;;;;;;;17.30;99.90;;;;;;5115219;28;19933;-46
2022/04/24 01:55:57;;;;;;;;;;;17.20;99.90;;;;;;5096974;28;19908;-45
2022/04/24 01:58:23;;;;;;;;;;;17.20;99.90;;;;;;5115253;28;20326;-48
2022/04/24 02:00:48;;;;;;;;;;;17.20;99.90;;;;;;5114949;28;19952;-47
2022/04/24 02:03:14;;;;;;;;;;;17.20;99.90;;;;;;5114520;28;19914;-45
2022/04/24 02:05:39;;;;;;;;;;;17.30;99.90;;;;;;5114914;28;19919;-47
2022/04/24 02:08:05;;;;;;;;;;;17.30;99.90;;;;;;5114556;28;19912;-45
2022/04/24 02:10:31;;;;;;;;;;;17.20;99.90;;;;;;5114340;28;19991;-46
2022/04/24 02:12:56;;;;;;;;;;;17.20;99.90;;;;;;5114532;28;19907;-48
2022/04/24 02:15:22;;;;;;;;;;;17.20;99.90;;;;;;5096638;28;19950;-49
2022/04/24 02:17:47;;;;;;;;;;;17.30;99.90;;;;;;5114401;28;20247;-47
2022/04/24 02:20:13;;;;;;;;;;;17.20;99.90;;;;;;5114492;28;19907;-46
2022/04/24 02:22:38;;;;;;;;;;;17.20;99.90;;;;;;5114409;28;19961;-49
2022/04/24 02:25:04;;;;;;;;;;;17.30;99.90;;;;;;5114960;28;19955;-48
2022/04/24 02:27:30;;;;;;;;;;;17.20;99.90;;;;;;5114658;28;19912;-47
2022/04/24 02:29:55;;;;;;;;;;;17.30;99.90;;;;;;5114313;28;19907;-46
2022/04/24 02:32:21;;;;;;;;;;;17.30;99.90;;;;;;5114176;28;19972;-50
2022/04/24 02:34:46;;;;;;;;;;;17.20;99.90;;;;;;5114336;28;20282;-50
2022/04/24 02:37:12;;;;;;;;;;;17.30;99.90;;;;;;5114316;28;19955;-48
2022/04/24 02:39:38;;;;;;;;;;;17.20;99.90;;;;;;5114642;28;19998;-47
2022/04/24 02:42:03;;;;;;;;;;;17.30;99.90;;;;;;5114582;28;20346;-44
2022/04/24 02:44:29;;;;;;;;;;;17.30;99.90;;;;;;5114193;28;19912;-47
2022/04/24 02:46:54;;;;;;;;;;;17.30;99.90;;;;;;5114783;28;20016;-46
2022/04/24 02:49:20;;;;;;;;;;;17.30;99.90;;;;;;5114243;28;19993;-49
2022/04/24 02:51:45;;;;;;;;;;;17.30;99.90;;;;;;5114111;28;19914;-49
2022/04/24 02:54:11;;;;;;;;;;;17.20;99.90;;;;;;5114103;28;19907;-45
2022/04/24 02:56:36;;;;;;;;;;;17.20;99.90;;;;;;5114301;28;19908;-49
2022/04/24 02:59:02;;;;;;;;;;;17.10;99.90;;;;;;5114303;28;19908;-50
2022/04/24 03:01:28;;;;;;;;;;;17.10;99.90;;;;;;5114386;28;19912;-49
2022/04/24 03:03:54;;;;;;;;;;;17.10;99.90;;;;;;5114644;28;19930;-47
2022/04/24 03:06:19;;;;;;;;;;;17.10;99.90;;;;;;5114690;28;19912;-49
2022/04/24 03:08:46;;;;;;;;;;;17.20;99.90;;;;;;5114267;28;20266;-51
2022/04/24 03:11:12;;;;;;;;;;;17.20;99.90;;;;;;5114267;28;19908;-47
2022/04/24 03:13:37;;;;;;;;;;;17.30;99.90;;;;;;5113833;28;20361;-49
2022/04/24 03:16:03;;;;;;;;;;;17.20;99.90;;;;;;5114134;28;19999;-50
2022/04/24 03:18:29;;;;;;;;;;;17.20;99.90;;;;;;5114131;28;19917;-47
2022/04/24 03:20:54;;;;;;;;;;;17.30;99.90;;;;;;5114161;28;20349;-47
2022/04/24 03:23:19;;;;;;;;;;;17.20;99.90;;;;;;5117748;28;19999;-49
2022/04/24 03:25:45;;;;;;;;;;;17.30;99.90;;;;;;5118044;28;20464;-48
2022/04/24 03:28:10;;;;;;;;;;;17.30;99.90;;;;;;5118148;28;19961;-46
2022/04/24 03:30:36;;;;;;;;;;;17.30;99.90;;;;;;5117698;28;20260;-47
2022/04/24 03:33:02;;;;;;;;;;;17.40;99.90;;;;;;5118136;28;19919;-48
2022/04/24 03:35:27;;;;;;;;;;;17.30;99.90;;;;;;5117912;28;20370;-46
2022/04/24 03:37:53;;;;;;;;;;;17.40;99.90;;;;;;5117737;28;19922;-46
2022/04/24 03:40:19;;;;;;;;;;;17.40;99.90;;;;;;5117540;28;19921;-48
2022/04/24 03:42:45;;;;;;;;;;;17.30;99.90;;;;;;5099459;28;19908;-44
2022/04/24 03:45:11;;;;;;;;;;;17.30;99.90;;;;;;5117711;28;19976;-46
2022/04/24 03:47:37;;;;;;;;;;;17.30;99.90;;;;;;5117370;28;20310;-48
2022/04/24 03:50:03;;;;;;;;;;;17.30;99.90;;;;;;5117741;28;20365;-46
2022/04/24 03:52:29;;;;;;;;;;;17.30;99.90;;;;;;5117596;28;19908;-45
2022/04/24 03:54:54;;;;;;;;;;;17.30;99.90;;;;;;5117124;28;20037;-44
2022/04/24 03:57:20;;;;;;;;;;;17.30;99.90;;;;;;5117569;28;19923;-45
2022/04/24 03:59:45;;;;;;;;;;;17.40;99.90;;;;;;5117192;28;19908;-45
2022/04/24 04:02:11;;;;;;;;;;;17.40;99.90;;;;;;5117332;28;19908;-45
2022/04/24 04:04:37;;;;;;;;;;;17.30;99.90;;;;;;5116967;28;20373;-44
2022/04/24 04:07:03;;;;;;;;;;;17.30;99.90;;;;;;5116902;28;19907;-44
2022/04/24 04:09:29;;;;;;;;;;;17.30;99.90;;;;;;5117139;28;19956;-50
2022/04/24 04:11:55;;;;;;;;;;;17.30;99.90;;;;;;5116903;28;19907;-49
2022/04/24 04:14:21;;;;;;;;;;;17.30;99.90;;;;;;5117150;28;19947;-45
2022/04/24 04:16:48;;;;;;;;;;;17.30;99.90;;;;;;5117035;28;19962;-50
2022/04/24 04:19:13;;;;;;;;;;;17.30;99.90;;;;;;5117038;28;20006;-48
2022/04/24 04:21:39;;;;;;;;;;;17.30;99.90;;;;;;5116975;28;19962;-46
2022/04/24 04:24:05;;;;;;;;;;;17.40;99.90;;;;;;5116985;28;19915;-45
2022/04/24 04:26:30;;;;;;;;;;;17.30;99.90;;;;;;5117161;28;19915;-45
2022/04/24 04:28:56;;;;;;;;;;;17.30;99.90;;;;;;5116829;28;19908;-47
2022/04/24 04:31:21;;;;;;;;;;;17.30;99.90;;;;;;5116444;28;20278;-49
2022/04/24 04:33:47;;;;;;;;;;;17.30;99.90;;;;;;5116351;28;19930;-50
2022/04/24 04:36:12;;;;;;;;;;;17.30;99.90;;;;;;5116427;28;19908;-49
2022/04/24 04:38:38;;;;;;;;;;;17.30;99.90;;;;;;5116588;28;19923;-45
2022/04/24 04:41:04;;;;;;;;;;;17.30;99.90;;;;;;5116951;28;20338;-45
2022/04/24 04:43:30;;;;;;;;;;;17.30;99.90;;;;;;5116216;28;20285;-45
2022/04/24 04:45:56;;;;;;;;;;;17.40;99.90;;;;;;5116129;28;19908;-44
2022/04/24 04:48:22;;;;;;;;;;;17.30;99.90;;;;;;5116595;28;20243;-47
2022/04/24 04:50:47;;;;;;;;;;;17.40;99.90;;;;;;5116163;28;19951;-50
2022/04/24 04:53:13;;;;;;;;;;;17.40;99.90;;;;;;5116006;28;19911;-50
2022/04/24 04:55:38;;;;;;;;;;;17.40;99.90;;;;;;5098402;28;19962;-45
2022/04/24 04:58:04;;;;;;;;;;;17.40;99.90;;;;;;5116328;28;19916;-43
2022/04/24 05:00:29;;;;;;;;;;;17.40;99.90;;;;;;5116283;28;19912;-46
2022/04/24 05:02:55;;;;;;;;;;;17.40;99.90;;;;;;5115977;28;20384;-45
2022/04/24 05:05:20;;;;;;;;;;;17.40;99.90;;;;;;5116116;28;19908;-46
2022/04/24 05:07:47;;;;;;;;;;;17.40;99.90;;;;;;5116364;28;19915;-46
2022/04/24 05:10:12;;;;;;;;;;;17.40;99.90;;;;;;5116067;28;19908;-45
2022/04/24 05:12:38;;;;;;;;;;;17.40;99.90;;;;;;5116081;28;19915;-47
2022/04/24 05:15:04;;;;;;;;;;;17.40;99.90;;;;;;5115994;28;20002;-46
2022/04/24 05:17:30;;;;;;;;;;;17.40;99.90;;;;;;5115581;28;19920;-49
2022/04/24 05:19:56;;;;;;;;;;;17.40;99.90;;;;;;5115911;28;20281;-48
2022/04/24 05:22:22;;;;;;;;;;;17.50;99.90;;;;;;5115559;28;19943;-45
2022/04/24 05:24:48;;;;;;;;;;;17.40;99.90;;;;;;5115764;28;20341;-44
2022/04/24 05:27:13;;;;;;;;;;;17.40;99.90;;;;;;5115753;28;20277;-46
2022/04/24 05:29:39;;;;;;;;;;;17.40;99.90;;;;;;5115305;28;19912;-45
2022/04/24 05:32:04;;;;;;;;;;;17.30;99.90;;;;;;5115428;28;19931;-46
2022/04/24 05:34:30;;;;;;;;;;;17.40;99.90;;;;;;5097200;28;20335;-45
2022/04/24 05:36:55;;;;;;;;;;;17.40;99.90;;;;;;5115333;28;20377;-48
2022/04/24 05:39:21;;;;;;;;;;;17.40;99.90;;;;;;5115186;28;20002;-44
2022/04/24 05:41:47;;;;;;;;;;;17.40;99.90;;;;;;5096672;28;20139;-47
2022/04/24 05:44:13;;;;;;;;;;;17.40;99.90;;;;;;5114356;28;20300;-44
2022/04/24 05:46:38;;;;;;;;;;;17.40;99.90;;;;;;5115196;28;19908;-44
2022/04/24 05:49:04;;;;;;;;;;;17.40;99.90;;;;;;5114917;28;19942;-46
2022/04/24 05:51:29;;;;;;;;;;;17.30;99.90;;;;;;5114834;28;19918;-46
2022/04/24 05:53:55;;;;;;;;;;;17.40;99.90;;;;;;5115409;28;20038;-44
2022/04/24 05:56:20;;;;;;;;;;;17.40;99.90;;;;;;5115084;28;19916;-45
2022/04/24 05:58:46;;;;;;;;;;;17.40;99.90;;;;;;5115215;28;19930;-45
2022/04/24 06:01:11;;;;;;;;;;;17.40;99.90;;;;;;5114766;28;19908;-44
2022/04/24 06:03:40;;;;;;;;;;;17.40;99.90;;;;;;5114701;28;20411;-44
2022/04/24 06:06:05;;;;;;;;;;;17.40;99.90;;;;;;5114585;28;19908;-45
2022/04/24 06:08:31;;;;;;;;;;;17.50;99.90;;;;;;5114883;28;20373;-44
2022/04/24 06:10:56;;;;;;;;;;;17.50;99.90;;;;;;5114563;28;19954;-48
2022/04/24 06:13:22;;;;;;;;;;;17.50;99.90;;;;;;5115202;28;20334;-48
2022/04/24 06:15:48;;;;;;;;;;;17.50;99.90;;;;;;5114849;28;19915;-48
2022/04/24 06:18:13;;;;;;;;;;;17.40;99.90;;;;;;5114897;28;19916;-50
2022/04/24 06:20:39;;;;;;;;;;;17.40;99.90;;;;;;5114470;28;19912;-46
2022/04/24 06:23:04;;;;;;;;;;;17.40;99.90;;;;;;5114670;28;20010;-45
2022/04/24 06:25:34;;;;;;;;;;;17.50;99.90;;;;;;5114330;28;19908;-44
2022/04/24 06:28:00;;;;;;;;;;;17.50;99.90;;;;;;5114564;28;20077;-45
2022/04/24 06:30:26;;;;;;;;;;;17.50;99.90;;;;;;5114214;28;19915;-48
2022/04/24 06:32:52;;;;;;;;;;;17.60;99.90;;;;;;5114916;28;20004;-47
2022/04/24 06:35:18;;;;;;;;;;;17.60;99.90;;;;;;5114519;28;19992;-47
2022/04/24 06:37:45;;;;;;;;;;;17.60;99.90;;;;;;5114222;28;20355;-47
2022/04/24 06:40:11;;;;;;;;;;;17.50;99.90;;;;;;5114459;28;20300;-49
2022/04/24 06:43:15;;;;;;;;;;;17.60;99.90;;;;;;5114157;28;19915;-48
2022/04/24 06:45:42;;;;;;;;;;;17.50;99.90;;;;;;5071736;28;19908;-45
2022/04/24 06:48:16;;;;;;;;;;;17.50;99.90;;;;;;5071467;28;19919;-44
2022/04/24 06:50:43;;;;;;;;;;;17.50;99.90;;;;;;5094158;28;20274;-46
2022/04/24 06:53:18;;;;;;;;;;;17.50;99.90;;;;;;5113864;28;20302;-48
2022/04/24 06:55:45;;;;;;;;;;;17.50;99.90;;;;;;5115237;28;19907;-48
2022/04/24 06:58:11;;;;;;;;;;;17.40;99.90;;;;;;5118113;28;19916;-45
2022/04/24 07:00:37;;;;;;;;;;;17.50;99.90;;;;;;5118003;28;19908;-45
2022/04/24 07:03:13;;;;;;;;;;;17.40;99.90;;;;;;5118281;28;20303;-49
2022/04/24 07:05:39;;;;;;;;;;;17.40;99.90;;;;;;5117953;28;19915;-44
2022/04/24 07:08:05;;;;;;;;;;;17.50;99.90;;;;;;5118028;28;19907;-46
2022/04/24 07:10:31;;;;;;;;;;;17.50;99.90;;;;;;5118314;28;19995;-46
2022/04/24 07:12:56;;;;;;;;;;;17.50;99.90;;;;;;5118186;28;19959;-47
2022/04/24 07:15:22;;;;;;;;;;;17.50;99.90;;;;;;5117914;28;20346;-47
2022/04/24 07:17:49;;;;;;;;;;;17.50;99.90;;;;;;5117971;28;19915;-47
2022/04/24 07:20:15;;;;;;;;;;;17.50;99.90;;;;;;5118191;28;19908;-45
2022/04/24 07:22:47;;;;;;;;;;;17.60;99.90;;;;;;5117966;28;20370;-47
2022/04/24 07:25:14;;;;;;;;;;;17.50;99.90;;;;;;5099709;28;19943;-47
2022/04/24 07:27:39;;;;;;;;;;;17.50;99.90;;;;;;5117817;28;19980;-47
2022/04/24 07:30:08;;;;;;;;;;;17.50;99.90;;;;;;5117939;28;20270;-46
2022/04/24 07:32:49;;;;;;;;;;;17.50;99.90;;;;;;5117545;28;19923;-44
2022/04/24 07:35:16;;;;;;;;;;;17.50;99.90;;;;;;5117386;28;19908;-44
2022/04/24 07:37:42;;;;;;;;;;;17.60;99.90;;;;;;5098998;28;19941;-45
2022/04/24 07:40:09;;;;;;;;;;;17.60;99.90;;;;;;5117650;28;20006;-49
2022/04/24 07:42:50;;;;;;;;;;;17.50;99.90;;;;;;5117720;28;19969;-46
2022/04/24 07:45:20;;;;;;;;;;;17.50;99.90;;;;;;5117283;28;19908;-45
2022/04/24 07:47:46;;;;;;;;;;;17.60;99.90;;;;;;5117624;28;19908;-47
2022/04/24 07:50:12;;;;;;;;;;;17.60;99.90;;;;;;5117565;28;19908;-46
2022/04/24 07:52:38;;;;;;;;;;;17.60;99.90;;;;;;5117262;28;19915;-47
2022/04/24 07:55:04;;;;;;;;;;;17.70;99.90;;;;;;5117199;28;20239;-44
2022/04/24 07:57:29;;;;;;;;;;;17.60;99.90;;;;;;5117160;28;20386;-46
2022/04/24 07:59:55;;;;;;;;;;;17.70;99.90;;;;;;5117247;28;19914;-47
2022/04/24 08:02:20;;;;;;;;;;;17.70;99.90;;;;;;5117527;28;20300;-47
2022/04/24 08:04:46;;;;;;;;;;;17.70;99.90;;;;;;5133005;27;19914;-46
2022/04/24 08:07:11;;;;;;;;;;;17.70;99.90;;;;;;5116304;28;20269;-49
2022/04/24 08:09:37;;;;;;;;;;;17.70;99.90;;;;;;5117177;28;20346;-46
2022/04/24 08:12:03;;;;;;;;;;;17.70;99.90;;;;;;5117096;28;20002;-50
2022/04/24 08:14:29;;;;;;;;;;;17.70;99.90;;;;;;5116894;28;20051;-46
2022/04/24 08:16:55;;;;;;;;;;;17.70;99.90;;;;;;5116947;28;20026;-45
2022/04/24 08:19:21;;;;;;;;;;;17.70;99.90;;;;;;5116679;28;20326;-45
2022/04/24 08:21:46;;;;;;;;;;;17.60;99.90;;;;;;5116942;28;20002;-48
2022/04/24 08:24:12;;;;;;;;;;;17.60;99.90;;;;;;5098514;28;19998;-46
2022/04/24 08:26:37;;;;;;;;;;;17.60;99.90;;;;;;5116754;28;19914;-47
2022/04/24 08:29:03;;;;;;;;;;;17.70;99.90;;;;;;5116389;28;19915;-45
2022/04/24 08:31:28;;;;;;;;;;;17.70;99.90;;;;;;5115952;28;19920;-47
2022/04/24 08:33:57;;;;;;;;;;;17.70;99.90;;;;;;5116262;28;19915;-47
2022/04/24 08:36:26;;;;;;;;;;;17.60;99.90;;;;;;5116259;28;20353;-46
2022/04/24 08:38:51;;;;;;;;;;;17.70;99.90;;;;;;5097921;28;19969;-44
2022/04/24 08:41:20;;;;;;;;;;;17.70;99.90;;;;;;5116267;28;19911;-48
2022/04/24 08:43:45;;;;;;;;;;;17.60;99.90;;;;;;5116328;28;19908;-48
2022/04/24 08:46:11;;;;;;;;;;;17.60;99.90;;;;;;5116149;28;19914;-46
2022/04/24 08:48:37;;;;;;;;;;;17.70;99.90;;;;;;5116054;28;20255;-49
2022/04/24 08:51:05;;;;;;;;;;;17.70;99.90;;;;;;5116043;28;19919;-46
2022/04/24 08:53:31;;;;;;;;;;;17.70;99.90;;;;;;5115798;28;19970;-49
2022/04/24 08:55:57;;;;;;;;;;;17.60;99.90;;;;;;5115583;28;20340;-48
2022/04/24 08:58:22;;;;;;;;;;;17.70;99.90;;;;;;5097602;28;19916;-46
2022/04/24 09:00:48;;;;;;;;;;;17.70;99.90;;;;;;5115928;28;19942;-46
2022/04/24 09:03:14;;;;;;;;;;;17.70;99.90;;;;;;5115529;28;19954;-50
2022/04/24 09:05:40;;;;;;;;;;;17.70;99.90;;;;;;5115465;28;19915;-45
2022/04/24 09:08:09;;;;;;;;;;;17.70;99.90;;;;;;5115595;28;19908;-46
2022/04/24 09:10:47;;;;;;;;;;;17.70;99.90;;;;;;5116005;28;19981;-45
2022/04/24 09:13:12;;;;;;;;;;;17.70;99.90;;;;;;5115874;28;20000;-46
2022/04/24 09:15:38;;;;;;;;;;;17.70;99.90;;;;;;5115736;28;20311;-47
2022/04/24 09:18:03;;;;;;;;;;;17.70;99.90;;;;;;5115263;28;19915;-46
2022/04/24 09:20:34;;;;;;;;;;;17.70;99.90;;;;;;5097398;28;19930;-48
2022/04/24 09:23:03;;;;;;;;;;;17.70;99.90;;;;;;5115403;28;19937;-47
2022/04/24 09:25:38;;;;;;;;;;;17.80;99.90;;;;;;5115463;28;19951;-46
2022/04/24 09:28:04;;;;;;;;;;;17.80;99.90;;;;;;5115341;28;19908;-44
2022/04/24 09:30:35;;;;;;;;;;;17.80;99.90;;;;;;5115040;28;20052;-47
2022/04/24 09:33:01;;;;;;;;;;;17.80;99.90;;;;;;5115308;28;20101;-47
2022/04/24 09:35:27;;;;;;;;;;;17.80;99.90;;;;;;5115353;28;20010;-48
2022/04/24 09:38:03;;;;;;;;;;;17.80;99.90;;;;;;5114897;28;19961;-45
2022/04/24 09:40:36;;;;;;;;;;;17.80;99.90;;;;;;5114912;28;19908;-45
2022/04/24 09:43:01;;;;;;;;;;;17.80;99.90;;;;;;5114843;28;19915;-47
2022/04/24 09:45:27;;;;;;;;;;;17.80;99.90;;;;;;5114859;28;19908;-45
2022/04/24 09:47:56;;;;;;;;;;;17.80;99.90;;;;;;5114675;28;20407;-47
2022/04/24 09:50:22;;;;;;;;;;;17.80;99.90;;;;;;5115066;28;20348;-47
2022/04/24 09:52:48;;;;;;;;;;;17.80;99.90;;;;;;5114800;28;20045;-45
2022/04/24 09:55:14;;;;;;;;;;;17.80;99.90;;;;;;5115010;28;19915;-45
2022/04/24 09:57:40;;;;;;;;;;;17.80;99.90;;;;;;5114599;28;20435;-44
2022/04/24 10:00:06;;;;;;;;;;;17.80;99.90;;;;;;5115145;28;19911;-48
2022/04/24 10:02:32;;;;;;;;;;;17.80;99.90;;;;;;5114657;28;19959;-47
2022/04/24 10:04:58;;;;;;;;;;;17.80;99.90;;;;;;5114725;28;19914;-48
2022/04/24 10:07:24;;;;;;;;;;;17.80;99.90;;;;;;5114606;28;19914;-49
2022/04/24 10:09:49;;;;;;;;;;;17.80;99.90;;;;;;5114642;28;20374;-47
2022/04/24 10:12:19;;;;;;;;;;;17.80;99.90;;;;;;5114784;28;19915;-47
2022/04/24 10:15:16;;;;;;;;;;;17.80;99.90;;;;;;5114432;28;19915;-47
2022/04/24 10:17:42;;;;;;;;;;;17.80;99.90;;;;;;5092046;28;19961;-49
2022/04/24 10:20:20;;;;;;;;;;;17.80;99.90;;;;;;5114742;28;19915;-47
2022/04/24 10:22:47;;;;;;;;;;;17.80;99.90;;;;;;5114827;28;19915;-47
2022/04/24 10:25:15;;;;;;;;;;;17.80;99.90;;;;;;5114529;28;19908;-46
2022/04/24 10:27:42;;;;;;;;;;;17.80;99.90;;;;;;5114238;28;19915;-45
2022/04/24 10:30:10;;;;;;;;;;;17.80;99.90;;;;;;5114231;28;20269;-44
2022/04/24 10:32:36;;;;;;;;;;;17.80;99.90;;;;;;5114691;28;19920;-47
2022/04/24 10:35:13;;;;;;;;;;;17.80;99.90;;;;;;5114220;28;20323;-45
2022/04/24 10:37:38;;;;;;;;;;;17.90;99.90;;;;;;5114479;28;19955;-47
2022/04/24 10:40:11;;;;;;;;;;;17.80;99.90;;;;;;5130106;27;19911;-46
2022/04/24 10:42:37;;;;;;;;;;;17.80;99.90;;;;;;5114503;28;19919;-49
2022/04/24 10:45:04;;;;;;;;;;;17.90;99.90;;;;;;5114381;28;20310;-47
2022/04/24 10:48:05;;;;;;;;;;;17.80;99.90;;;;;;5114494;28;19947;-50
2022/04/24 10:50:31;;;;;;;;;;;17.80;99.90;;;;;;5091382;28;19955;-46
2022/04/24 10:52:56;;;;;;;;;;;17.80;99.90;;;;;;5114283;28;19908;-49
2022/04/24 10:55:26;;;;;;;;;;;17.80;99.90;;;;;;5114023;28;19985;-46
2022/04/24 10:57:57;;;;;;;;;;;17.80;99.90;;;;;;5114019;28;20400;-47
2022/04/24 11:00:27;;;;;;;;;;;17.80;99.90;;;;;;5114062;28;19908;-46
2022/04/24 11:03:03;;;;;;;;;;;17.80;99.90;;;;;;5113520;28;19911;-47
2022/04/24 11:05:34;;;;;;;;;;;17.80;99.90;;;;;;5113698;28;20016;-46
2022/04/24 11:08:02;;;;;;;;;;;17.80;99.90;;;;;;5114300;28;20330;-49
2022/04/24 11:10:28;;;;;;;;;;;17.80;99.90;;;;;;5113849;28;19908;-47
2022/04/24 11:12:54;;;;;;;;;;;17.80;99.90;;;;;;5114164;28;19908;-48
2022/04/24 11:15:20;;;;;;;;;;;17.80;99.90;;;;;;5113977;28;20274;-46
2022/04/24 11:17:46;;;;;;;;;;;17.80;99.90;;;;;;5113533;28;19922;-45
2022/04/24 11:20:13;;;;;;;;;;;17.70;99.90;;;;;;5113642;28;19943;-46
2022/04/24 11:22:45;;;;;;;;;;;17.80;99.90;;;;;;5113938;28;20247;-49
2022/04/24 11:25:11;;;;;;;;;;;17.70;99.90;;;;;;5095629;28;19953;-45
2022/04/24 11:27:37;;;;;;;;;;;17.70;99.90;;;;;;5095693;28;19908;-48
2022/04/24 11:30:13;;;;;;;;;;;17.80;99.90;;;;;;5114072;28;19915;-46
2022/04/24 11:32:38;;;;;;;;;;;17.80;99.90;;;;;;5113898;28;20256;-46
2022/04/24 11:35:06;;;;;;;;;;;17.80;99.90;;;;;;5113344;28;19933;-48
2022/04/24 11:37:31;;;;;;;;;;;17.80;99.90;;;;;;5113565;28;19922;-47
2022/04/24 11:40:00;;;;;;;;;;;17.80;99.90;;;;;;5113921;28;19907;-45
2022/04/24 11:42:26;;;;;;;;;;;17.80;99.90;;;;;;5114280;28;19908;-47
2022/04/24 11:50:20;;;;;;;;;;;17.80;99.90;;;;;;5117490;28;20324;-46
2022/04/24 11:52:46;;;;;;;;;;;17.70;99.90;;;;;;5117509;28;19908;-44
2022/04/24 11:55:13;;;;;;;;;;;17.80;99.90;;;;;;5116922;28;19908;-45
2022/04/24 11:57:39;;;;;;;;;;;17.80;99.90;;;;;;5117200;28;19916;-49
2022/04/24 12:00:05;;;;;;;;;;;17.80;99.90;;;;;;5117276;28;19998;-45
2022/04/24 12:02:31;;;;;;;;;;;17.70;99.90;;;;;;5117189;28;19915;-49
2022/04/24 12:04:57;;;;;;;;;;;17.70;99.90;;;;;;5132989;27;20285;-45
2022/04/24 12:07:31;;;;;;;;;;;17.70;99.90;;;;;;5117096;28;19922;-51
2022/04/24 12:10:01;;;;;;;;;;;17.80;99.90;;;;;;5116884;28;19937;-51
2022/04/24 12:12:27;;;;;;;;;;;17.70;99.90;;;;;;5116773;28;19908;-46
2022/04/24 12:14:52;;;;;;;;;;;17.70;99.90;;;;;;5116776;28;19908;-45
2022/04/24 12:17:18;;;;;;;;;;;17.70;99.90;;;;;;5116809;28;20236;-47
2022/04/24 12:19:51;;;;;;;;;;;17.70;99.90;;;;;;5116726;28;20025;-50
2022/04/24 12:22:25;;;;;;;;;;;17.80;99.90;;;;;;5116541;28;19934;-49
2022/04/24 12:24:51;;;;;;;;;;;17.70;99.90;;;;;;5116473;28;19907;-49
2022/04/24 12:27:17;;;;;;;;;;;17.70;99.90;;;;;;5116391;28;19908;-48
2022/04/24 12:29:48;;;;;;;;;;;17.70;99.90;;;;;;5116751;28;19927;-45
2022/04/24 12:32:14;;;;;;;;;;;17.80;99.90;;;;;;5116502;28;19942;-49
2022/04/24 12:34:40;;;;;;;;;;;17.70;99.90;;;;;;5116667;28;19911;-51
2022/04/24 12:37:06;;;;;;;;;;;17.80;99.90;;;;;;5116447;28;19965;-51
2022/04/24 12:39:32;;;;;;;;;;;17.70;99.90;;;;;;5116144;28;19908;-49
2022/04/24 12:41:58;;;;;;;;;;;17.70;99.90;;;;;;5116329;28;20223;-48
2022/04/24 12:44:24;;;;;;;;;;;17.70;99.90;;;;;;5116510;28;19908;-48
2022/04/24 12:46:50;;;;;;;;;;;17.70;99.90;;;;;;5116140;28;20266;-46
2022/04/24 12:49:29;;;;;;;;;;;17.70;99.90;;;;;;5115995;28;20422;-47
2022/04/24 12:51:55;;;;;;;;;;;17.70;99.90;;;;;;5116336;28;19908;-45
2022/04/24 12:54:21;;;;;;;;;;;17.70;99.90;;;;;;5115781;28;19999;-46
2022/04/24 12:56:46;;;;;;;;;;;17.70;99.90;;;;;;5116035;28;19919;-47
2022/04/24 12:59:12;;;;;;;;;;;17.70;99.90;;;;;;5097957;28;19908;-45
2022/04/24 13:01:38;;;;;;;;;;;17.70;99.90;;;;;;5115122;28;19908;-49
2022/04/24 13:04:04;;;;;;;;;;;17.80;99.90;;;;;;5115611;28;19915;-48
2022/04/24 13:06:30;;;;;;;;;;;17.70;99.90;;;;;;5097108;28;19919;-47
2022/04/24 13:08:55;;;;;;;;;;;17.70;99.90;;;;;;5115850;28;19908;-45
2022/04/24 13:11:25;;;;;;;;;;;17.70;99.90;;;;;;5116018;28;20070;-49
2022/04/24 13:13:51;;;;;;;;;;;17.70;99.90;;;;;;5115902;28;20350;-49
2022/04/24 13:19:01;;;;;;;;;;;17.70;99.90;;;;;;5115477;28;19943;-49
2022/04/24 13:21:27;;;;;;;;;;;17.60;99.90;;;;;;5115696;28;19990;-46
2022/04/24 13:23:52;;;;;;;;;;;17.70;99.90;;;;;;5115260;28;19954;-47
2022/04/24 13:26:18;;;;;;;;;;;17.70;99.90;;;;;;5115427;28;19908;-46
2022/04/24 13:28:43;;;;;;;;;;;17.70;99.90;;;;;;5115303;28;19908;-47
2022/04/24 13:31:09;;;;;;;;;;;17.70;99.90;;;;;;5114859;28;19908;-46
2022/04/24 13:33:34;;;;;;;;;;;17.70;99.90;;;;;;5096938;28;19908;-45
2022/04/24 13:36:00;;;;;;;;;;;17.70;99.90;;;;;;5097206;28;19998;-47
2022/04/24 13:38:26;;;;;;;;;;;17.70;99.90;;;;;;5114908;28;19916;-46
2022/04/24 13:40:54;;;;;;;;;;;17.70;99.90;;;;;;5114980;28;19908;-45
2022/04/24 13:43:21;;;;;;;;;;;17.70;99.90;;;;;;5114840;28;19999;-49
2022/04/24 13:45:50;;;;;;;;;;;17.70;99.90;;;;;;5115203;28;19908;-46
2022/04/24 13:48:16;;;;;;;;;;;17.70;99.90;;;;;;5115644;28;19908;-45
2022/04/24 13:50:42;;;;;;;;;;;17.70;99.90;;;;;;5114977;28;19912;-45
2022/04/24 13:53:07;;;;;;;;;;;17.70;99.90;;;;;;5115082;28;19908;-49
2022/04/24 13:55:33;;;;;;;;;;;17.70;99.90;;;;;;5115151;28;19908;-46
2022/04/24 13:57:59;;;;;;;;;;;17.60;99.90;;;;;;5114969;28;20010;-48
2022/04/24 14:00:25;;;;;;;;;;;17.70;99.90;;;;;;5115320;28;19907;-50
2022/04/24 14:02:51;;;;;;;;;;;17.70;99.90;;;;;;5114994;28;19908;-47
2022/04/24 14:05:16;;;;;;;;;;;17.70;99.90;;;;;;5114099;28;19970;-49
2022/04/24 14:07:42;;;;;;;;;;;17.70;99.90;;;;;;5096450;28;19908;-50
2022/04/24 14:10:08;;;;;;;;;;;17.70;99.90;;;;;;5096677;28;20061;-46
2022/04/24 14:12:34;;;;;;;;;;;17.70;99.90;;;;;;5114665;28;19964;-46
2022/04/24 14:14:59;;;;;;;;;;;17.70;99.90;;;;;;5114704;28;20405;-50
2022/04/24 14:17:25;;;;;;;;;;;17.70;99.90;;;;;;5114367;28;20340;-49
2022/04/24 14:19:51;;;;;;;;;;;17.70;99.90;;;;;;5114902;28;20350;-46
2022/04/24 14:22:17;;;;;;;;;;;17.70;99.90;;;;;;5114725;28;19930;-46